createdAt,value
2023-02-08T00:00:54.422Z,103923.94
2023-02-08T00:03:21.493Z,103927.34
2023-02-08T00:05:48.662Z,103913.84
2023-02-08T00:08:15.361Z,103928.25
2023-02-08T00:10:42.561Z,103918.28
2023-02-08T00:13:09.388Z,103923.06
2023-02-08T00:15:36.127Z,103922.19
2023-02-08T00:18:02.782Z,103917.72
2023-02-08T00:20:29.472Z,103922.97
2023-02-08T00:22:56.487Z,103924.88
2023-02-08T00:25:23.232Z,103925.88
2023-02-08T00:27:49.910Z,103920.78
2023-02-08T00:30:16.651Z,103928.28
2023-02-08T00:32:43.313Z,103930.13
2023-02-08T00:35:11.662Z,103925.72
2023-02-08T00:37:38.314Z,103936.28
2023-02-08T00:40:06.038Z,103930.03
2023-02-08T00:42:33.348Z,103920.25
2023-02-08T00:45:00.018Z,103929.59
2023-02-08T00:47:26.657Z,103928.78
2023-02-08T00:49:53.692Z,103926.06
2023-02-08T00:52:20.729Z,103921.53
2023-02-08T00:54:47.420Z,103928.47
2023-02-08T00:57:14.724Z,103932.56
2023-02-08T00:59:41.635Z,103920.94
2023-02-08T01:02:09.091Z,103928.66
2023-02-08T01:04:35.900Z,103932.22
2023-02-08T01:07:02.576Z,103932.00
2023-02-08T01:09:29.212Z,103929.13
2023-02-08T01:11:55.853Z,103925.72
2023-02-08T01:14:22.499Z,103928.03
2023-02-08T01:16:49.140Z,103915.88
2023-02-08T01:19:16.381Z,103927.31
2023-02-08T01:21:44.606Z,103923.56
2023-02-08T01:24:12.003Z,103924.91
2023-02-08T01:26:38.997Z,103922.81
2023-02-08T01:29:06.042Z,103921.44
2023-02-08T01:31:38.200Z,103923.03
2023-02-08T01:34:05.589Z,103924.41
2023-02-08T01:36:33.022Z,103924.75
2023-02-08T01:39:01.636Z,103922.38
2023-02-08T01:41:31.521Z,103922.38
2023-02-08T01:44:03.058Z,103914.88
2023-02-08T01:46:40.377Z,103911.56
2023-02-08T01:49:15.366Z,103910.78
2023-02-08T01:51:48.605Z,103912.72
2023-02-08T01:54:18.456Z,103918.16
2023-02-08T01:56:48.582Z,103917.94
2023-02-08T01:59:22.782Z,103927.03
2023-02-08T02:01:54.729Z,103929.28
2023-02-08T02:04:21.665Z,103925.75
2023-02-08T02:06:51.898Z,103919.19
2023-02-08T02:09:41.772Z,103921.25
2023-02-08T02:12:09.471Z,103920.22
2023-02-08T02:14:37.548Z,103922.25
2023-02-08T02:17:04.810Z,103915.44
2023-02-08T02:19:31.348Z,103910.09
2023-02-08T02:22:41.802Z,103919.97
2023-02-08T02:25:49.035Z,103916.13
2023-02-08T02:28:47.971Z,103926.00
2023-02-08T02:31:26.834Z,103928.25
2023-02-08T02:33:56.536Z,103926.56
2023-02-08T02:36:42.103Z,103927.47
2023-02-08T02:39:29.840Z,103928.03
2023-02-08T02:42:41.808Z,103930.66
2023-02-08T02:45:20.489Z,103931.53
2023-02-08T02:47:56.218Z,103929.75
2023-02-08T02:50:31.915Z,103925.88
2023-02-08T02:53:22.956Z,103922.38
2023-02-08T02:55:56.585Z,103929.97
2023-02-08T02:58:24.091Z,103927.34
2023-02-08T03:01:00.689Z,103926.91
2023-02-08T03:03:29.198Z,103927.81
2023-02-08T03:06:01.554Z,103927.59
2023-02-08T03:08:51.980Z,103929.38
2023-02-08T03:11:26.135Z,103930.78
2023-02-08T03:14:05.007Z,103926.78
2023-02-08T03:16:34.534Z,103931.78
2023-02-08T03:19:04.032Z,103927.03
2023-02-08T03:22:03.210Z,103923.28
2023-02-08T03:24:36.622Z,103916.13
2023-02-08T03:27:24.946Z,103924.41
2023-02-08T03:30:02.160Z,103924.53
2023-02-08T03:32:38.394Z,103922.38
2023-02-08T03:35:10.506Z,103933.47
2023-02-08T03:37:41.602Z,103927.47
2023-02-08T03:40:22.878Z,103921.56
2023-02-08T03:42:51.123Z,103926.91
2023-02-08T03:45:24.145Z,103914.88
2023-02-08T03:47:52.236Z,103911.56
2023-02-08T03:50:19.870Z,103922.00
2023-02-08T03:52:48.070Z,103918.50
2023-02-08T03:55:19.061Z,103921.13
2023-02-08T03:58:08.801Z,103915.69
2023-02-08T04:00:39.919Z,103916.72
2023-02-08T04:03:11.542Z,103913.84
2023-02-08T04:05:38.204Z,103926.00
2023-02-08T04:08:05.135Z,103924.75
2023-02-08T04:10:31.823Z,103927.13
2023-02-08T04:13:01.472Z,103926.00
2023-02-08T04:15:28.290Z,103915.13
2023-02-08T04:17:55.248Z,103928.59
2023-02-08T04:20:21.922Z,103922.56
2023-02-08T04:22:48.668Z,103914.53
2023-02-08T04:25:15.357Z,103909.91
2023-02-08T04:27:42.038Z,103918.03
2023-02-08T04:30:09.141Z,103920.44
2023-02-08T04:32:35.797Z,103922.91
2023-02-08T04:35:02.409Z,103923.94
2023-02-08T04:37:29.038Z,103920.53
2023-02-08T04:39:55.695Z,103920.44
2023-02-08T04:42:22.438Z,103916.25
2023-02-08T04:44:55.275Z,103916.13
2023-02-08T04:47:22.169Z,103912.63
2023-02-08T04:49:48.825Z,103922.91
2023-02-08T04:52:15.509Z,103914.41
2023-02-08T04:54:42.119Z,103921.91
2023-02-08T04:57:12.649Z,103921.22
2023-02-08T04:59:39.302Z,103918.38
2023-02-08T05:02:06.013Z,103924.41
2023-02-08T05:04:35.877Z,103919.75
2023-02-08T05:07:02.741Z,103912.13
2023-02-08T05:09:29.479Z,103924.81
2023-02-08T05:11:56.197Z,103920.63
2023-02-08T05:14:23.212Z,103921.53
2023-02-08T05:16:49.889Z,103928.44
2023-02-08T05:19:16.571Z,103925.72
2023-02-08T05:21:43.217Z,103916.22
2023-02-08T05:24:12.859Z,103926.66
2023-02-08T05:26:40.855Z,103931.06
2023-02-08T05:29:07.439Z,103927.31
2023-02-08T05:31:34.236Z,103926.97
2023-02-08T05:34:01.017Z,103922.56
2023-02-08T05:36:27.712Z,103929.00
2023-02-08T05:38:54.444Z,103934.09
2023-02-08T05:41:21.192Z,103936.69
2023-02-08T05:43:47.940Z,103933.19
2023-02-08T05:46:14.937Z,103938.50
2023-02-08T05:48:41.764Z,103935.44
2023-02-08T05:51:11.744Z,103930.91
2023-02-08T05:53:38.561Z,103936.59
2023-02-08T05:56:05.322Z,103946.84
2023-02-08T05:58:32.001Z,103945.63
2023-02-08T06:00:58.792Z,103942.91
2023-02-08T06:03:25.620Z,103940.25
2023-02-08T06:05:52.289Z,103946.56
2023-02-08T06:08:18.962Z,103944.09
2023-02-08T06:10:48.634Z,103946.47
2023-02-08T06:13:16.015Z,103945.81
2023-02-08T06:15:42.614Z,103949.09
2023-02-08T06:18:09.393Z,103946.38
2023-02-08T06:20:36.089Z,103952.00
2023-02-08T06:23:05.754Z,103958.38
2023-02-08T06:25:32.431Z,103959.97
2023-02-08T06:27:59.145Z,103958.75
2023-02-08T06:30:25.813Z,103959.97
2023-02-08T06:32:52.561Z,103959.31
2023-02-08T06:35:19.261Z,103956.44
2023-02-08T06:37:45.878Z,103967.47
2023-02-08T06:40:12.550Z,103961.69
2023-02-08T06:42:39.192Z,103967.41
2023-02-08T06:45:08.443Z,103972.34
2023-02-08T06:47:35.289Z,103960.44
2023-02-08T06:50:01.937Z,103969.81
2023-02-08T06:52:28.755Z,103973.81
2023-02-08T06:54:55.703Z,103964.09
2023-02-08T06:57:22.310Z,103971.41
2023-02-08T06:59:48.965Z,103977.00
2023-02-08T07:02:17.854Z,103974.50
2023-02-08T07:04:45.584Z,103977.91
2023-02-08T07:07:13.135Z,103977.31
2023-02-08T07:09:40.179Z,103978.25
2023-02-08T07:12:07.037Z,103976.13
2023-02-08T07:14:35.883Z,103979.25
2023-02-08T07:17:03.447Z,103971.19
2023-02-08T07:19:30.425Z,103974.41
2023-02-08T07:22:08.462Z,103969.97
2023-02-08T07:24:39.860Z,103966.38
2023-02-08T07:27:11.814Z,103968.50
2023-02-08T07:29:38.862Z,103967.06
2023-02-08T07:32:06.580Z,103967.63
2023-02-08T07:34:36.178Z,103965.81
2023-02-08T07:37:03.100Z,103968.09
2023-02-08T07:39:31.491Z,103963.44
2023-02-08T07:41:58.821Z,103966.47
2023-02-08T07:44:28.728Z,103969.09
2023-02-08T07:46:55.376Z,103976.09
2023-02-08T07:49:22.096Z,103976.09
2023-02-08T07:51:48.716Z,103975.44
2023-02-08T07:54:15.369Z,103979.63
2023-02-08T07:56:42.105Z,103974.50
2023-02-08T07:59:09.022Z,103977.19
2023-02-08T08:01:35.790Z,103987.88
2023-02-08T08:04:02.542Z,103988.31
2023-02-08T08:06:29.239Z,103993.22
2023-02-08T08:08:55.879Z,103990.81
2023-02-08T08:11:23.109Z,103989.19
2023-02-08T08:13:50.253Z,103996.44
2023-02-08T08:16:17.397Z,104003.47
2023-02-08T08:18:44.288Z,104003.00
2023-02-08T08:21:11.102Z,104003.59
2023-02-08T08:23:37.820Z,104000.75
2023-02-08T08:26:14.035Z,103992.56
2023-02-08T08:28:41.402Z,104008.13
2023-02-08T08:31:13.194Z,104001.25
2023-02-08T08:33:40.119Z,104007.03
2023-02-08T08:36:07.714Z,104007.44
2023-02-08T08:38:34.348Z,104006.53
2023-02-08T08:41:00.978Z,104003.59
2023-02-08T08:43:27.610Z,103995.66
2023-02-08T08:45:54.249Z,103989.75
2023-02-08T08:48:21.076Z,103990.75
2023-02-08T08:50:49.617Z,103977.38
2023-02-08T08:53:16.426Z,103966.63
2023-02-08T08:55:46.215Z,103976.63
2023-02-08T08:58:12.859Z,103963.03
2023-02-08T09:00:39.728Z,103967.25
2023-02-08T09:03:09.646Z,103960.16
2023-02-08T09:05:36.533Z,103955.56
2023-02-08T09:08:03.715Z,103961.66
2023-02-08T09:10:31.066Z,103965.59
2023-02-08T09:12:58.709Z,103958.19
2023-02-08T09:15:25.391Z,103961.16
2023-02-08T09:17:52.032Z,103964.06
2023-02-08T09:20:18.764Z,103958.91
2023-02-08T09:22:48.572Z,103958.09
2023-02-08T09:25:15.314Z,103950.84
2023-02-08T09:27:42.064Z,103967.41
2023-02-08T09:30:09.327Z,103964.78
2023-02-08T09:32:36.860Z,103969.47
2023-02-08T09:35:03.865Z,103977.16
2023-02-08T09:37:30.536Z,103972.50
2023-02-08T09:40:00.179Z,103978.28
2023-02-08T09:42:37.342Z,103969.53
2023-02-08T09:45:29.552Z,103971.78
2023-02-08T09:48:14.510Z,103971.50
2023-02-08T09:50:52.516Z,103970.03
2023-02-08T09:53:34.433Z,103960.16
2023-02-08T09:56:05.496Z,103959.28
2023-02-08T09:58:42.033Z,103952.31
2023-02-08T10:01:35.192Z,103947.28
2023-02-08T10:04:06.607Z,103942.75
2023-02-08T10:06:33.472Z,103932.22
2023-02-08T10:09:06.274Z,103929.50
2023-02-08T10:11:45.240Z,103945.22
2023-02-08T10:14:34.576Z,103935.19
2023-02-08T10:17:04.390Z,103926.78
2023-02-08T10:19:38.230Z,103915.66
2023-02-08T10:22:16.217Z,103916.81
2023-02-08T10:25:01.650Z,103912.97
2023-02-08T10:27:38.949Z,103913.66
2023-02-08T10:30:17.495Z,103896.31
2023-02-08T10:33:06.619Z,103908.22
2023-02-08T10:35:37.548Z,103909.25
2023-02-08T10:38:19.277Z,103901.06
2023-02-08T10:40:55.988Z,103898.34
2023-02-08T10:43:35.482Z,103881.97
2023-02-08T10:46:07.070Z,103884.00
2023-02-08T10:49:11.717Z,103893.56
2023-02-08T10:51:41.071Z,103882.53
2023-02-08T10:54:12.418Z,103877.81
2023-02-08T10:56:57.627Z,103885.25
2023-02-08T10:59:29.250Z,103879.00
2023-02-08T11:01:56.712Z,103866.28
2023-02-08T11:04:23.390Z,103863.03
2023-02-08T11:06:51.547Z,103862.28
2023-02-08T11:09:23.917Z,103867.34
2023-02-08T11:11:54.203Z,103854.16
2023-02-08T11:14:45.962Z,103851.94
2023-02-08T11:17:28.648Z,103851.94
2023-02-08T11:19:55.616Z,103850.84
2023-02-08T11:22:25.231Z,103851.91
2023-02-08T11:24:58.551Z,103850.09
2023-02-08T11:27:28.468Z,103847.16
2023-02-08T11:30:15.815Z,103839.00
2023-02-08T11:32:44.886Z,103839.69
2023-02-08T11:35:26.095Z,103850.94
2023-02-08T11:37:55.001Z,103847.22
2023-02-08T11:40:25.831Z,103839.47
2023-02-08T11:42:53.646Z,103835.03
2023-02-08T11:45:26.100Z,103841.06
2023-02-08T11:47:52.893Z,103843.53
2023-02-08T11:50:37.088Z,103852.22
2023-02-08T11:53:06.976Z,103848.72
2023-02-08T11:55:34.549Z,103848.84
2023-02-08T11:58:13.437Z,103844.41
2023-02-08T12:00:40.991Z,103844.53
2023-02-08T12:03:23.859Z,103847.09
2023-02-08T12:06:08.400Z,103847.34
2023-02-08T12:08:51.235Z,103839.59
2023-02-08T12:11:41.782Z,103831.38
2023-02-08T12:14:26.683Z,103827.50
2023-02-08T12:16:53.204Z,103835.53
2023-02-08T12:19:30.347Z,103836.28
2023-02-08T12:22:04.090Z,103839.25
2023-02-08T12:25:05.973Z,103842.25
2023-02-08T12:27:42.937Z,103852.66
2023-02-08T12:30:26.515Z,103844.47
2023-02-08T12:33:11.494Z,103849.88
2023-02-08T12:36:05.882Z,103859.38
2023-02-08T12:39:10.410Z,103861.16
2023-02-08T12:42:38.068Z,103853.25
2023-02-08T12:45:31.727Z,103849.22
2023-02-08T12:48:11.737Z,103847.09
2023-02-08T12:50:46.234Z,103838.75
2023-02-08T12:53:22.055Z,103843.34
2023-02-08T12:55:50.577Z,103833.69
2023-02-08T12:58:46.269Z,103838.75
2023-02-08T13:01:19.720Z,103832.16
2023-02-08T13:04:21.854Z,103828.28
2023-02-08T13:06:51.183Z,103831.19
2023-02-08T13:09:35.251Z,103829.91
2023-02-08T13:12:44.557Z,103831.00
2023-02-08T13:15:30.800Z,103820.03
2023-02-08T13:18:04.570Z,103814.84
2023-02-08T13:20:49.549Z,103817.16
2023-02-08T13:23:50.530Z,103819.09
2023-02-08T13:26:26.726Z,103803.00
2023-02-08T13:29:02.021Z,103803.34
2023-02-08T13:31:36.210Z,103802.53
2023-02-08T13:34:13.081Z,103793.03
2023-02-08T13:36:41.800Z,103787.31
2023-02-08T13:39:39.709Z,103790.19
2023-02-08T13:42:08.742Z,103790.22
2023-02-08T13:44:37.872Z,103783.16
2023-02-08T13:47:05.855Z,103788.97
2023-02-08T13:49:50.621Z,103782.72
2023-02-08T13:52:47.965Z,103786.38
2023-02-08T13:55:30.761Z,103787.41
2023-02-08T13:58:01.313Z,103780.28
2023-02-08T14:00:35.459Z,103790.81
2023-02-08T14:03:08.252Z,103782.72
2023-02-08T14:05:50.944Z,103773.84
2023-02-08T14:08:29.666Z,103772.78
2023-02-08T14:11:30.831Z,103777.22
2023-02-08T14:14:16.830Z,103761.03
2023-02-08T14:16:44.895Z,103768.38
2023-02-08T14:19:20.398Z,103764.69
2023-02-08T14:21:49.536Z,103771.00
2023-02-08T14:24:37.980Z,103771.00
2023-02-08T14:27:11.357Z,103762.47
2023-02-08T14:29:38.307Z,103752.47
2023-02-08T14:32:05.240Z,103753.88
2023-02-08T14:34:35.635Z,103748.72
2023-02-08T14:37:26.711Z,103744.34
2023-02-08T14:40:31.208Z,103752.03
2023-02-08T14:43:03.524Z,103746.81
2023-02-08T14:45:34.590Z,103738.00
2023-02-08T14:48:01.109Z,103735.31
2023-02-08T14:50:37.592Z,103736.31
2023-02-08T14:53:13.961Z,103739.63
2023-02-08T14:55:46.306Z,103739.69
2023-02-08T14:58:20.685Z,103732.66
2023-02-08T15:00:51.461Z,103736.81
2023-02-08T15:03:18.691Z,103734.88
2023-02-08T15:06:07.180Z,103726.31
2023-02-08T15:08:34.015Z,103723.53
2023-02-08T15:11:00.655Z,103733.22
2023-02-08T15:13:27.747Z,103730.03
2023-02-08T15:15:56.357Z,103726.25
2023-02-08T15:18:25.807Z,103715.09
2023-02-08T15:21:04.935Z,103707.56
2023-02-08T15:23:31.789Z,103712.38
2023-02-08T15:26:00.353Z,103707.63
2023-02-08T15:28:30.020Z,103707.91
2023-02-08T15:31:06.141Z,103707.91
2023-02-08T15:33:33.160Z,103707.22
2023-02-08T15:36:06.925Z,103695.59
2023-02-08T15:38:35.529Z,103695.78
2023-02-08T15:41:04.621Z,103695.94
2023-02-08T15:43:31.934Z,103691.03
2023-02-08T15:46:01.615Z,103688.47
2023-02-08T15:48:29.204Z,103683.94
2023-02-08T15:50:56.891Z,103677.56
2023-02-08T15:53:24.001Z,103677.69
2023-02-08T15:55:54.337Z,103670.00
2023-02-08T15:58:36.254Z,103673.78
2023-02-08T16:01:04.252Z,103680.00
2023-02-08T16:03:31.461Z,103680.81
2023-02-08T16:06:04.148Z,103678.13
2023-02-08T16:08:33.112Z,103684.63
2023-02-08T16:11:01.652Z,103676.34
2023-02-08T16:13:34.287Z,103677.03
2023-02-08T16:16:16.493Z,103671.63
2023-02-08T16:18:46.362Z,103681.34
2023-02-08T16:21:34.569Z,103682.34
2023-02-08T16:24:07.116Z,103692.28
2023-02-08T16:26:36.153Z,103684.28
2023-02-08T16:29:05.522Z,103680.69
2023-02-08T16:31:33.596Z,103689.78
2023-02-08T16:34:08.078Z,103686.84
2023-02-08T16:36:37.958Z,103685.78
2023-02-08T16:39:22.077Z,103685.19
2023-02-08T16:42:06.484Z,103685.34
2023-02-08T16:45:09.375Z,103680.31
2023-02-08T16:47:43.009Z,103684.03
2023-02-08T16:50:13.251Z,103680.16
2023-02-08T16:52:40.298Z,103677.06
2023-02-08T16:55:08.385Z,103679.28
2023-02-08T16:57:48.332Z,103673.44
2023-02-08T17:00:24.301Z,103675.28
2023-02-08T17:02:51.222Z,103675.59
2023-02-08T17:05:19.287Z,103668.72
2023-02-08T17:07:52.240Z,103674.38
2023-02-08T17:10:28.529Z,103666.81
2023-02-08T17:13:09.842Z,103672.34
2023-02-08T17:15:43.803Z,103665.44
2023-02-08T17:18:11.050Z,103660.09
2023-02-08T17:20:37.847Z,103669.84
2023-02-08T17:23:05.711Z,103655.34
2023-02-08T17:25:33.730Z,103667.66
2023-02-08T17:28:06.502Z,103665.19
2023-02-08T17:30:36.279Z,103664.13
2023-02-08T17:33:17.993Z,103664.88
2023-02-08T17:35:46.783Z,103663.16
2023-02-08T17:38:14.026Z,103657.66
2023-02-08T17:40:40.688Z,103654.22
2023-02-08T17:43:07.730Z,103657.91
2023-02-08T17:45:40.817Z,103655.72
2023-02-08T17:48:08.032Z,103646.34
2023-02-08T17:50:35.239Z,103649.56
2023-02-08T17:53:06.819Z,103649.72
2023-02-08T17:55:33.657Z,103643.91
2023-02-08T17:58:00.549Z,103643.31
2023-02-08T18:00:27.460Z,103628.94
2023-02-08T18:02:55.869Z,103635.38
2023-02-08T18:05:25.161Z,103634.81
2023-02-08T18:07:53.100Z,103624.28
2023-02-08T18:10:20.643Z,103629.06
2023-02-08T18:12:47.475Z,103630.78
2023-02-08T18:15:17.282Z,103623.72
2023-02-08T18:17:44.681Z,103632.34
2023-02-08T18:20:14.371Z,103627.50
2023-02-08T18:22:42.333Z,103621.66
2023-02-08T18:25:10.134Z,103615.50
2023-02-08T18:27:36.956Z,103624.22
2023-02-08T18:30:04.229Z,103621.50
2023-02-08T18:32:34.293Z,103621.75
2023-02-08T18:35:04.755Z,103623.81
2023-02-08T18:37:32.310Z,103616.25
2023-02-08T18:40:02.224Z,103600.56
2023-02-08T18:42:29.054Z,103596.41
2023-02-08T18:44:58.754Z,103604.94
2023-02-08T18:47:25.555Z,103595.00
2023-02-08T18:49:55.842Z,103595.00
2023-02-08T18:52:23.945Z,103589.50
2023-02-08T18:54:53.734Z,103586.56
2023-02-08T18:57:20.660Z,103580.56
2023-02-08T18:59:47.572Z,103570.72
2023-02-08T19:02:21.228Z,103579.91
2023-02-08T19:04:48.462Z,103586.22
2023-02-08T19:07:15.262Z,103572.84
2023-02-08T19:09:43.837Z,103572.34
2023-02-08T19:12:10.628Z,103563.94
2023-02-08T19:14:37.569Z,103559.91
2023-02-08T19:17:04.587Z,103555.97
2023-02-08T19:19:31.275Z,103563.50
2023-02-08T19:21:58.014Z,103552.84
2023-02-08T19:24:27.730Z,103547.38
2023-02-08T19:26:54.369Z,103552.13
2023-02-08T19:29:22.585Z,103542.75
2023-02-08T19:31:50.513Z,103546.25
2023-02-08T19:34:17.997Z,103536.09
2023-02-08T19:36:49.292Z,103537.66
2023-02-08T19:39:25.009Z,103533.41
2023-02-08T19:41:53.044Z,103537.72
2023-02-08T19:44:20.544Z,103527.34
2023-02-08T19:46:52.633Z,103531.06
2023-02-08T19:49:21.234Z,103531.59
2023-02-08T19:51:48.155Z,103531.38
2023-02-08T19:54:17.139Z,103522.91
2023-02-08T19:56:43.882Z,103520.88
2023-02-08T19:59:19.131Z,103510.28
2023-02-08T20:01:46.481Z,103511.66
2023-02-08T20:04:13.892Z,103496.59
2023-02-08T20:06:40.776Z,103497.53
2023-02-08T20:09:08.094Z,103499.66
2023-02-08T20:11:38.732Z,103505.31
2023-02-08T20:14:11.952Z,103497.13
2023-02-08T20:16:38.673Z,103499.59
2023-02-08T20:19:05.367Z,103493.75
2023-02-08T20:21:32.578Z,103494.69
2023-02-08T20:24:01.906Z,103488.03
2023-02-08T20:26:32.004Z,103491.31
2023-02-08T20:28:59.249Z,103500.66
2023-02-08T20:31:31.211Z,103498.19
2023-02-08T20:33:59.972Z,103494.69
2023-02-08T20:36:28.845Z,103497.69
2023-02-08T20:38:57.468Z,103497.13
2023-02-08T20:41:25.520Z,103494.16
2023-02-08T20:43:52.572Z,103490.22
2023-02-08T20:46:24.853Z,103492.84
2023-02-08T20:48:52.687Z,103484.66
2023-02-08T20:51:21.575Z,103489.28
2023-02-08T20:53:49.357Z,103485.41
2023-02-08T20:56:21.780Z,103485.44
2023-02-08T20:58:49.116Z,103476.88
2023-02-08T21:01:21.192Z,103468.16
2023-02-08T21:03:48.082Z,103469.50
2023-02-08T21:06:20.245Z,103472.34
2023-02-08T21:08:51.810Z,103465.25
2023-02-08T21:11:20.094Z,103461.72
2023-02-08T21:13:46.981Z,103461.53
2023-02-08T21:16:14.605Z,103468.41
2023-02-08T21:18:41.276Z,103472.31
2023-02-08T21:21:09.350Z,103466.69
2023-02-08T21:23:36.450Z,103460.22
2023-02-08T21:26:05.029Z,103461.06
2023-02-08T21:28:32.289Z,103451.00
2023-02-08T21:31:07.915Z,103445.75
2023-02-08T21:33:34.764Z,103447.28
2023-02-08T21:36:03.277Z,103441.53
2023-02-08T21:38:30.130Z,103439.56
2023-02-08T21:40:56.947Z,103440.78
2023-02-08T21:43:23.628Z,103443.09
2023-02-08T21:45:50.491Z,103429.84
2023-02-08T21:48:17.301Z,103437.47
2023-02-08T21:51:02.669Z,103433.53
2023-02-08T21:53:48.105Z,103430.41
2023-02-08T21:56:14.853Z,103429.72
2023-02-08T21:58:41.547Z,103422.78
2023-02-08T22:01:08.880Z,103418.16
2023-02-08T22:03:35.575Z,103405.88
2023-02-08T22:06:05.114Z,103401.69
2023-02-08T22:08:31.757Z,103398.22
2023-02-08T22:11:04.661Z,103397.41
2023-02-08T22:13:33.069Z,103402.72
2023-02-08T22:16:07.669Z,103399.94
2023-02-08T22:18:34.400Z,103391.34
2023-02-08T22:21:03.933Z,103385.19
2023-02-08T22:23:30.898Z,103389.19
2023-02-08T22:25:57.537Z,103387.91
2023-02-08T22:28:24.343Z,103394.78
2023-02-08T22:30:51.277Z,103381.41
2023-02-08T22:33:18.154Z,103389.13
2023-02-08T22:35:44.888Z,103389.47
2023-02-08T22:38:11.629Z,103385.13
2023-02-08T22:40:41.029Z,103387.91
2023-02-08T22:43:07.707Z,103387.66
2023-02-08T22:45:34.478Z,103376.94
2023-02-08T22:48:01.320Z,103375.16
2023-02-08T22:50:28.059Z,103373.97
2023-02-08T22:52:54.746Z,103372.44
2023-02-08T22:55:21.342Z,103372.09
2023-02-08T22:57:51.288Z,103367.00
2023-02-08T23:00:18.066Z,103366.03
2023-02-08T23:02:44.774Z,103369.72
2023-02-08T23:05:12.210Z,103367.56
2023-02-08T23:07:38.845Z,103357.16
2023-02-08T23:10:05.656Z,103359.47
2023-02-08T23:12:32.471Z,103352.59
2023-02-08T23:14:59.129Z,103359.28
2023-02-08T23:17:25.918Z,103354.22
2023-02-08T23:19:53.259Z,103356.84
2023-02-08T23:22:19.914Z,103357.94
2023-02-08T23:24:46.627Z,103351.81
2023-02-08T23:27:13.348Z,103355.53
2023-02-08T23:29:40.032Z,103344.88
2023-02-08T23:32:06.832Z,103346.84
2023-02-08T23:34:34.716Z,103352.22
2023-02-08T23:37:01.912Z,103356.94
2023-02-08T23:39:28.619Z,103343.03
2023-02-08T23:41:56.193Z,103340.47
2023-02-08T23:44:23.653Z,103333.63
2023-02-08T23:46:50.455Z,103332.84
2023-02-08T23:49:17.186Z,103333.19
2023-02-08T23:51:43.866Z,103328.34
2023-02-08T23:54:10.606Z,103327.97
2023-02-08T23:56:37.318Z,103341.47
2023-02-08T23:59:08.277Z,103333.47
